Time;durP1;ratioP1;P1;durP2;ratioP2;P2;SDS_P1;SDS_P2;PMS_P1;PMS_P2;Temp;Humidity;BMP_temperature;BMP_pressure;BME280_temperature;BME280_humidity;BME280_pressure;Samples;Min_cycle;Max_cycle;Signal;HPM_P1;HPM_P2
2022/08/31 00:04:10;;;;;;;5.07;3.40;;;20.30;90.90;;;20.21;59.75;97332.03;4956908;28;20041;-45
2022/08/31 00:06:36;;;;;;;4.22;3.17;;;20.30;91.20;;;20.12;59.86;97322.88;4946803;28;20085;-45
2022/08/31 00:09:04;;;;;;;4.97;3.10;;;20.20;91.30;;;20.15;60.19;97332.47;4954676;28;20034;-45
2022/08/31 00:11:34;;;;;;;4.07;3.15;;;20.20;91.40;;;20.14;59.97;97323.59;4952154;28;20066;-44
2022/08/31 00:14:05;;;;;;;4.28;3.00;;;20.20;91.40;;;20.13;60.49;97327.25;4964920;28;20027;-48
2022/08/31 00:16:36;;;;;;;5.18;3.22;;;20.10;91.60;;;20.15;60.43;97333.34;4960201;28;20035;-45
2022/08/31 00:19:03;;;;;;;7.75;3.65;;;20.20;91.70;;;20.14;60.63;97330.78;4960179;28;20034;-45
2022/08/31 00:21:28;;;;;;;7.65;3.88;;;20.20;91.60;;;20.15;61.36;97330.69;4958010;28;20127;-47
2022/08/31 00:23:55;;;;;;;4.63;3.50;;;20.20;91.80;;;20.14;60.91;97339.66;4945779;28;20153;-45
2022/08/31 00:26:22;;;;;;;5.30;3.17;;;20.20;91.80;;;20.15;61.33;97330.69;4956911;28;20050;-45
2022/08/31 00:28:49;;;;;;;5.00;3.05;;;20.20;91.80;;;20.17;60.48;97335.88;4953438;28;20030;-46
2022/08/31 00:31:16;;;;;;;4.05;3.15;;;20.20;92.00;;;20.15;60.88;97345.88;4947162;28;20045;-47
2022/08/31 00:33:42;;;;;;;5.90;3.40;;;20.20;91.70;;;20.12;61.02;97357.69;4939586;28;20106;-44
2022/08/31 00:36:12;;;;;;;6.32;3.45;;;20.20;91.80;;;20.10;63.70;97359.63;4949963;28;20097;-45
2022/08/31 00:38:40;;;;;;;5.47;3.17;;;20.20;92.80;;;20.07;63.63;97361.69;4957358;28;20034;-44
2022/08/31 00:41:09;;;;;;;5.18;3.30;;;20.10;92.70;;;20.00;67.01;97369.31;4960485;28;20051;-45
2022/08/31 00:43:43;;;;;;;7.82;3.65;;;20.10;93.60;;;19.91;74.47;97370.00;4959282;28;20035;-46
2022/08/31 00:46:12;;;;;;;6.13;3.20;;;20.00;95.80;;;19.81;73.09;97372.50;4954098;28;21407;-44
2022/08/31 00:48:44;;;;;;;6.20;3.42;;;19.90;95.70;;;19.70;70.74;97380.47;4953623;28;20034;-46
2022/08/31 00:51:11;;;;;;;5.53;3.65;;;19.80;95.00;;;19.63;76.41;97391.63;4953391;28;20391;-45
2022/08/31 00:53:37;;;;;;;6.15;3.58;;;19.70;96.90;;;19.52;77.16;97399.56;4958398;28;20549;-46
2022/08/31 00:56:04;;;;;;;5.65;3.40;;;19.60;97.00;;;19.39;81.31;97396.94;4958667;28;20034;-45
2022/08/31 00:58:30;;;;;;;7.45;3.65;;;19.50;98.10;;;19.31;81.84;97401.13;4938121;28;20030;-45
2022/08/31 01:00:58;;;;;;;6.65;3.60;;;19.50;98.40;;;19.21;83.81;97407.16;4952527;28;20521;-46
2022/08/31 01:03:25;;;;;;;6.40;4.40;;;19.30;99.00;;;19.18;86.58;97411.84;4954564;28;20030;-44
2022/08/31 01:05:51;;;;;;;5.93;4.00;;;19.30;99.90;;;19.10;86.18;97420.44;4955527;28;20483;-45
2022/08/31 01:08:17;;;;;;;7.50;4.43;;;19.20;99.90;;;18.95;91.66;97400.13;4959182;28;20062;-45
2022/08/31 01:10:45;;;;;;;10.55;5.32;;;19.00;99.90;;;18.56;100.00;97393.94;4939208;28;20089;-44
2022/08/31 01:13:11;;;;;;;9.98;6.00;;;18.70;99.90;;;18.18;100.00;97389.41;4962326;28;20030;-44
2022/08/31 01:15:43;;;;;;;9.45;5.78;;;18.30;99.90;;;17.90;100.00;97386.78;4945442;28;20031;-45
2022/08/31 01:18:09;;;;;;;16.37;6.20;;;18.00;99.90;;;17.46;100.00;97371.88;4962229;28;20511;-47
2022/08/31 01:21:08;;;;;;;16.50;7.57;;;17.70;99.90;;;17.36;100.00;97392.09;4931879;28;20301;-47
2022/08/31 01:23:42;;;;;;;10.00;6.50;;;17.50;99.90;;;17.11;100.00;97398.13;4941565;28;20026;-47
2022/08/31 01:26:10;;;;;;;9.68;6.15;;;17.30;99.90;;;16.87;100.00;97384.53;4956392;28;20523;-45
2022/08/31 01:28:36;;;;;;;8.60;5.90;;;17.20;99.90;;;16.82;100.00;97403.47;4933790;28;20152;-45
2022/08/31 01:31:21;;;;;;;9.20;6.10;;;17.00;99.90;;;16.68;100.00;97391.00;4953804;28;20475;-46
2022/08/31 01:33:47;;;;;;;8.75;6.38;;;16.90;99.90;;;16.60;100.00;97404.78;4938533;28;20727;-46
2022/08/31 01:36:14;;;;;;;9.10;5.18;;;16.80;99.90;;;16.52;100.00;97404.38;4952646;28;20066;-45
2022/08/31 01:38:40;;;;;;;8.02;5.60;;;16.70;99.90;;;16.50;100.00;97408.94;4951004;28;20678;-46
2022/08/31 01:41:06;;;;;;;7.97;5.90;;;16.60;99.90;;;16.48;100.00;97405.53;4957318;28;20049;-43
2022/08/31 01:43:34;;;;;;;8.32;5.57;;;16.60;99.90;;;16.40;100.00;97397.13;4946788;28;20252;-45
2022/08/31 01:46:07;;;;;;;7.43;5.50;;;16.60;99.90;;;16.39;100.00;97388.31;4938250;28;20031;-47
2022/08/31 01:48:35;;;;;;;8.32;5.93;;;16.60;99.90;;;16.41;100.00;97393.53;4953832;28;20043;-45
2022/08/31 01:51:02;;;;;;;9.07;6.40;;;16.50;99.90;;;16.41;100.00;97394.38;4954044;28;20077;-46
2022/08/31 01:53:28;;;;;;;9.55;5.80;;;16.60;99.90;;;16.28;100.00;97364.16;4958070;28;20093;-46
2022/08/31 01:55:54;;;;;;;10.27;5.97;;;16.50;99.90;;;16.42;100.00;97388.13;4956349;28;20688;-48
2022/08/31 01:58:19;;;;;;;9.43;7.07;;;16.50;99.90;;;16.37;100.00;97394.69;4954139;28;20832;-47
2022/08/31 02:00:45;;;;;;;9.00;6.22;;;16.50;99.90;;;16.30;100.00;97393.34;4934875;28;20047;-47
2022/08/31 02:03:11;;;;;;;10.98;6.38;;;16.50;99.90;;;16.23;100.00;97395.50;4942179;28;20109;-47
2022/08/31 02:05:38;;;;;;;10.40;6.65;;;16.40;99.90;;;16.21;100.00;97397.41;4955387;28;20038;-45
2022/08/31 02:08:07;;;;;;;7.95;5.72;;;16.40;99.90;;;16.19;100.00;97391.31;4952745;28;20037;-48
2022/08/31 02:10:33;;;;;;;8.15;5.97;;;16.40;99.90;;;16.18;100.00;97394.91;4959961;28;20041;-47
2022/08/31 02:12:59;;;;;;;8.32;6.03;;;16.30;99.90;;;16.14;100.00;97399.56;4963660;28;20850;-49
2022/08/31 02:15:25;;;;;;;8.00;5.97;;;16.30;99.90;;;16.15;100.00;97400.41;4972101;23;20506;-48
2022/08/31 02:17:51;;;;;;;9.05;6.47;;;16.30;99.90;;;16.11;100.00;97382.94;4969766;28;20034;-47
2022/08/31 02:20:17;;;;;;;10.18;6.35;;;16.30;99.90;;;16.14;100.00;97390.72;4968074;28;20441;-47
2022/08/31 02:22:43;;;;;;;8.45;6.65;;;16.30;99.90;;;16.14;100.00;97385.41;4966584;28;20585;-49
2022/08/31 02:25:10;;;;;;;10.63;6.95;;;16.30;99.90;;;16.13;100.00;97389.88;4964835;28;21996;-50
2022/08/31 02:27:37;;;;;;;11.48;8.05;;;16.30;99.90;;;16.20;100.00;97393.00;4943152;28;21340;-49
2022/08/31 02:30:11;;;;;;;10.40;7.13;;;16.30;99.90;;;16.19;100.00;97407.28;4966402;28;21068;-47
2022/08/31 02:32:37;;;;;;;9.57;6.90;;;16.30;99.90;;;16.04;100.00;97385.09;4974007;28;20030;-46
2022/08/31 02:35:04;;;;;;;9.57;6.88;;;16.30;99.90;;;16.15;100.00;97403.94;4973655;28;20050;-48
2022/08/31 02:37:30;;;;;;;13.93;7.75;;;16.30;99.90;;;16.10;100.00;97398.03;4971586;28;20121;-46
2022/08/31 02:39:55;;;;;;;9.02;6.97;;;16.30;99.90;;;16.05;100.00;97401.94;4971351;28;20049;-45
2022/08/31 02:42:21;;;;;;;11.60;7.20;;;16.20;99.90;;;16.08;100.00;97407.03;4969995;28;20804;-48
2022/08/31 02:44:47;;;;;;;10.43;6.95;;;16.20;99.90;;;16.07;100.00;97406.19;4968249;28;20069;-46
2022/08/31 02:47:12;;;;;;;16.15;6.75;;;16.20;99.90;;;16.07;100.00;97408.84;4973901;28;20045;-47
2022/08/31 02:49:38;;;;;;;8.52;6.65;;;16.20;99.90;;;16.05;100.00;97402.78;4974318;28;20030;-48
2022/08/31 02:52:04;;;;;;;8.18;6.57;;;16.20;99.90;;;16.03;100.00;97397.53;4972216;28;20027;-49
2022/08/31 02:54:29;;;;;;;8.23;6.65;;;16.20;99.90;;;16.09;100.00;97409.63;4969774;28;20364;-46
2022/08/31 02:56:55;;;;;;;9.63;7.22;;;16.30;99.90;;;16.09;100.00;97412.28;4966788;28;20037;-50
2022/08/31 02:59:21;;;;;;;9.43;7.57;;;16.30;99.90;;;16.07;100.00;97408.84;4974166;28;20037;-46
2022/08/31 03:01:47;;;;;;;8.68;6.35;;;16.30;99.90;;;16.05;100.00;97402.78;4972698;28;21184;-47
2022/08/31 03:04:13;;;;;;;7.35;6.10;;;16.20;99.90;;;16.04;100.00;97406.38;4973863;28;20549;-46
2022/08/31 03:06:38;;;;;;;11.85;7.63;;;16.20;99.90;;;15.98;100.00;97394.28;4968408;28;20062;-48
2022/08/31 03:09:04;;;;;;;9.57;7.10;;;16.20;99.90;;;15.84;100.00;97368.53;4973554;28;20037;-45
2022/08/31 03:11:31;;;;;;;8.98;7.60;;;16.20;99.90;;;16.01;100.00;97395.94;4976209;28;20023;-47
2022/08/31 03:13:56;;;;;;;9.65;7.65;;;16.20;99.90;;;15.98;100.00;97396.09;4978319;28;20314;-47
2022/08/31 03:16:22;;;;;;;8.68;7.35;;;16.10;99.90;;;15.92;100.00;97397.31;4967833;28;20118;-48
2022/08/31 03:18:48;;;;;;;8.95;6.60;;;16.10;99.90;;;15.93;100.00;97400.84;4975606;28;20038;-46
2022/08/31 03:21:15;;;;;;;10.45;6.95;;;16.10;99.90;;;15.80;100.00;97382.09;4974453;28;20075;-49
2022/08/31 03:23:41;;;;;;;8.90;6.78;;;16.10;99.90;;;15.89;100.00;97399.31;4968961;28;20038;-50
2022/08/31 03:26:06;;;;;;;6.95;6.20;;;16.10;99.90;;;15.87;100.00;97404.72;4973784;28;20568;-47
2022/08/31 03:28:35;;;;;;;8.70;6.43;;;16.00;99.90;;;15.90;100.00;97409.84;4955545;28;20049;-46
2022/08/31 03:31:01;;;;;;;9.38;6.85;;;16.00;99.90;;;15.82;100.00;97385.50;4956055;28;20031;-48
2022/08/31 03:33:26;;;;;;;10.77;7.03;;;16.10;99.90;;;15.82;100.00;97383.69;4971904;28;20027;-50
2022/08/31 03:35:52;;;;;;;8.90;7.20;;;16.10;99.90;;;15.97;100.00;97391.72;4967276;28;20466;-51
2022/08/31 03:38:19;;;;;;;8.75;7.05;;;16.10;99.90;;;15.94;100.00;97384.78;4975745;28;20371;-49
2022/08/31 03:40:45;;;;;;;10.00;7.05;;;16.10;99.90;;;16.01;100.00;97395.94;4971695;28;20066;-48
2022/08/31 03:43:12;;;;;;;9.15;7.40;;;16.20;99.90;;;16.03;100.00;97386.91;4972509;28;20030;-47
2022/08/31 03:45:40;;;;;;;9.70;6.95;;;16.20;99.90;;;16.01;100.00;97382.63;4976389;28;20116;-45
2022/08/31 03:48:07;;;;;;;14.70;9.05;;;16.20;99.90;;;15.96;100.00;97382.03;4972701;28;20042;-49
2022/08/31 03:50:34;;;;;;;10.48;8.20;;;16.20;99.90;;;15.96;100.00;97382.03;4951772;28;20031;-49
2022/08/31 03:53:03;;;;;;;9.55;7.32;;;16.20;99.90;;;15.95;100.00;97385.63;4955454;28;20041;-49
2022/08/31 03:55:30;;;;;;;8.57;7.03;;;16.10;99.90;;;15.94;100.00;97394.56;4969742;28;20023;-50
2022/08/31 03:57:56;;;;;;;11.50;7.22;;;16.10;99.90;;;15.92;100.00;97384.03;4948198;28;20548;-50
2022/08/31 04:00:22;;;;;;;14.85;10.27;;;16.10;99.90;;;15.91;100.00;97392.94;4969138;28;20030;-47
2022/08/31 04:02:48;;;;;;;10.13;8.88;;;16.10;99.90;;;15.83;100.00;97388.06;4967415;28;20133;-47
2022/08/31 04:05:15;;;;;;;14.32;8.98;;;16.10;99.90;;;15.87;100.00;97403.88;4957319;28;20372;-49
2022/08/31 04:07:41;;;;;;;10.65;7.82;;;16.10;99.90;;;15.82;100.00;97407.63;4967651;28;20038;-48
2022/08/31 04:10:10;;;;;;;9.05;7.30;;;16.10;99.90;;;15.86;100.00;97418.09;4968370;28;20068;-48
2022/08/31 04:12:36;;;;;;;8.63;7.03;;;16.00;99.90;;;15.85;100.00;97422.56;4968459;28;20026;-47
2022/08/31 04:15:02;;;;;;;10.43;7.93;;;16.10;99.90;;;15.87;100.00;97419.81;4955825;28;20450;-47
2022/08/31 04:17:28;;;;;;;10.82;7.47;;;16.10;99.90;;;15.92;100.00;97420.41;4969161;28;20045;-48
2022/08/31 04:19:54;;;;;;;9.77;7.40;;;16.10;99.90;;;15.95;100.00;97425.53;4972819;28;20030;-48
2022/08/31 04:22:19;;;;;;;9.90;6.70;;;16.10;99.90;;;15.95;100.00;97420.22;4974586;28;20026;-45
2022/08/31 04:24:45;;;;;;;8.75;7.25;;;16.10;99.90;;;15.96;100.00;97421.94;4971267;28;20464;-48
2022/08/31 04:27:11;;;;;;;10.38;7.85;;;16.10;99.90;;;15.98;100.00;97428.03;4968521;28;20030;-48
2022/08/31 04:29:36;;;;;;;10.70;7.53;;;16.20;99.90;;;15.99;100.00;97417.28;4968196;28;20406;-46
2022/08/31 04:32:02;;;;;;;10.25;7.80;;;16.20;99.90;;;16.02;100.00;97417.13;4967149;28;20042;-48
2022/08/31 04:34:28;;;;;;;10.70;8.27;;;16.20;99.90;;;16.04;100.00;97419.66;4965812;28;20031;-49
2022/08/31 04:36:54;;;;;;;10.30;7.43;;;16.20;99.90;;;16.04;100.00;97422.31;4970409;28;20034;-50
2022/08/31 04:39:21;;;;;;;9.15;7.75;;;16.20;99.90;;;16.05;100.00;97418.72;4972141;28;20045;-48
2022/08/31 04:41:47;;;;;;;8.98;7.93;;;16.20;99.90;;;16.05;100.00;97432.03;4966537;28;20034;-47
2022/08/31 04:44:14;;;;;;;10.63;7.40;;;16.20;99.90;;;16.02;100.00;97418.91;4952880;28;20081;-48
2022/08/31 04:46:40;;;;;;;10.15;7.63;;;16.20;99.90;;;16.06;100.00;97422.25;4971248;28;20105;-44
2022/08/31 04:49:08;;;;;;;8.57;7.10;;;16.20;99.90;;;16.06;100.00;97425.78;4970314;28;20038;-47
2022/08/31 04:51:34;;;;;;;9.20;7.63;;;16.20;99.90;;;16.10;100.00;97437.09;4969110;28;20181;-46
2022/08/31 04:54:05;;;;;;;8.38;6.88;;;16.20;99.90;;;16.12;100.00;97436.03;4969863;28;20034;-49
2022/08/31 04:56:34;;;;;;;9.80;8.20;;;16.30;99.90;;;16.12;100.00;97436.03;4968759;28;20042;-46
2022/08/31 04:59:06;;;;;;;9.27;7.40;;;16.30;99.90;;;16.15;100.00;97441.19;4972305;28;20155;-49
2022/08/31 05:01:37;;;;;;;;;;;16.30;99.90;;;16.16;100.00;97439.38;4968162;28;20484;-45
2022/08/31 05:04:04;;;;;;;8.20;6.95;;;16.30;99.90;;;16.14;100.00;97433.31;4970571;28;20564;-48
2022/08/31 05:06:34;;;;;;;7.95;7.10;;;16.30;99.90;;;16.18;100.00;97443.66;4968780;28;20038;-46
2022/08/31 05:09:09;;;;;;;8.98;7.25;;;16.30;99.90;;;16.19;100.00;97437.41;4970048;28;20094;-49
2022/08/31 05:11:35;;;;;;;11.13;7.18;;;16.30;99.90;;;16.17;100.00;97439.28;4969373;28;20034;-49
2022/08/31 05:14:04;;;;;;;10.23;6.75;;;16.30;99.90;;;16.17;100.00;97446.44;4968673;28;20034;-48
2022/08/31 05:16:30;;;;;;;8.73;6.80;;;16.30;99.90;;;16.16;100.00;97450.88;4968976;28;20072;-50
2022/08/31 05:18:57;;;;;;;10.75;7.45;;;16.30;99.90;;;16.19;100.00;97458.69;4969693;28;20077;-47
2022/08/31 05:21:27;;;;;;;8.60;7.05;;;16.30;99.90;;;16.23;100.00;97454.88;4975070;28;20048;-49
2022/08/31 05:24:01;;;;;;;8.35;7.47;;;16.40;99.90;;;16.25;100.00;97457.47;4973138;28;20128;-46
2022/08/31 05:26:32;;;;;;;11.68;8.00;;;16.40;99.90;;;16.23;100.00;97454.03;4971785;28;20042;-48
2022/08/31 05:29:00;;;;;;;12.43;9.02;;;16.40;99.90;;;16.21;100.00;97447.97;4977121;28;20181;-49
2022/08/31 05:31:27;;;;;;;11.15;9.55;;;16.40;99.90;;;16.22;100.00;97454.97;4976339;28;20550;-47
2022/08/31 05:33:54;;;;;;;12.32;9.23;;;16.40;99.90;;;16.21;100.00;97448.81;4968954;28;20038;-47
2022/08/31 05:36:19;;;;;;;8.82;7.72;;;16.40;99.90;;;16.20;100.00;97457.75;4965165;28;20866;-48
2022/08/31 05:38:45;;;;;;;10.57;8.70;;;16.40;99.90;;;16.22;100.00;97466.50;4971825;28;20137;-49
2022/08/31 05:41:11;;;;;;;11.80;8.60;;;16.40;99.90;;;16.20;100.00;97473.72;4976640;28;20606;-48
2022/08/31 05:43:38;;;;;;;11.15;8.70;;;16.40;99.90;;;16.19;100.00;97469.31;4972925;28;20161;-45
2022/08/31 05:46:06;;;;;;;11.20;8.38;;;16.40;99.90;;;16.20;100.00;97475.50;4973595;28;20046;-49
2022/08/31 05:48:33;;;;;;;11.32;8.15;;;16.40;99.90;;;16.20;100.00;97476.38;4953088;28;20498;-48
2022/08/31 05:51:01;;;;;;;8.32;7.22;;;16.40;99.90;;;16.22;100.00;97479.81;4965711;28;20044;-49
2022/08/31 05:53:27;;;;;;;8.80;7.70;;;16.40;99.90;;;16.24;100.00;97474.41;4976776;28;20034;-49
2022/08/31 05:56:26;;;;;;;10.13;7.43;;;16.40;99.90;;;16.26;100.00;97475.16;4973092;28;20030;-48
2022/08/31 05:58:52;;;;;;;8.65;7.10;;;16.40;99.90;;;16.28;100.00;97480.41;4949999;28;20057;-49
2022/08/31 06:01:31;;;;;;;11.15;7.72;;;16.40;99.90;;;16.30;100.00;97481.16;4974529;28;20034;-49
2022/08/31 06:03:59;;;;;;;11.23;8.27;;;16.40;99.90;;;16.30;100.00;97481.16;4970106;28;20058;-49
2022/08/31 06:06:25;;;;;;;9.70;8.38;;;16.50;99.90;;;16.36;100.00;97489.63;4953665;28;20038;-46
2022/08/31 06:08:51;;;;;;;9.40;7.60;;;16.50;99.90;;;16.41;100.00;97489.34;4977702;28;20482;-48
2022/08/31 06:11:23;;;;;;;10.68;7.57;;;16.60;99.90;;;16.45;100.00;97490.03;4967828;28;20469;-50
2022/08/31 06:13:51;;;;;;;11.77;9.00;;;16.60;99.90;;;16.44;100.00;97480.31;4962889;28;20081;-48
2022/08/31 06:16:18;;;;;;;10.68;7.93;;;16.60;99.90;;;16.49;100.00;97491.56;4963676;28;20039;-49
2022/08/31 06:18:51;;;;;;;9.77;8.18;;;16.60;99.90;;;16.51;100.00;97492.31;4971797;28;20136;-50
2022/08/31 06:21:24;;;;;;;11.25;8.45;;;16.60;99.90;;;16.54;100.00;97500.13;4972956;28;20058;-50
2022/08/31 06:23:53;;;;;;;8.10;7.30;;;16.70;99.90;;;16.49;100.00;97492.44;4970354;28;20656;-47
2022/08/31 06:26:21;;;;;;;10.93;9.23;;;16.70;99.90;;;16.54;100.00;97506.31;4971431;28;20293;-49
2022/08/31 06:28:50;;;;;;;9.02;7.28;;;16.70;99.90;;;16.54;100.00;97498.31;4970146;28;20041;-50
2022/08/31 06:31:31;;;;;;;7.95;6.95;;;16.70;99.90;;;16.57;100.00;97507.94;4970703;28;20467;-50
2022/08/31 06:33:58;;;;;;;10.25;8.18;;;16.80;99.90;;;16.59;100.00;97503.38;4971486;28;20045;-50
2022/08/31 06:36:27;;;;;;;12.65;9.30;;;16.80;99.90;;;16.46;100.00;97486.44;4975600;28;20029;-51
2022/08/31 06:38:55;;;;;;;10.73;8.38;;;16.80;99.90;;;16.55;100.00;97502.69;4978065;28;20046;-48
2022/08/31 06:41:25;;;;;;;9.80;8.48;;;16.80;99.90;;;16.56;100.00;97500.88;4977486;28;20470;-50
2022/08/31 06:43:52;;;;;;;9.50;7.70;;;16.70;99.90;;;16.46;100.00;97487.28;4960815;28;20108;-50
2022/08/31 06:46:20;;;;;;;11.98;9.07;;;16.80;99.90;;;16.59;100.00;97509.56;4975566;28;20034;-50
2022/08/31 06:48:47;;;;;;;12.75;8.45;;;16.80;99.90;;;16.57;100.00;97505.28;4969838;28;20090;-48
2022/08/31 06:51:13;;;;;;;10.80;8.18;;;16.80;99.90;;;16.52;100.00;97505.53;4974300;28;20022;-49
2022/08/31 06:53:41;;;;;;;13.35;9.25;;;16.70;99.90;;;16.55;100.00;97501.84;4970812;28;20041;-49
2022/08/31 06:56:15;;;;;;;13.32;8.52;;;16.70;99.90;;;16.55;100.00;97509.84;4976345;28;20277;-48
2022/08/31 06:58:40;;;;;;;11.25;8.32;;;16.80;99.90;;;16.56;100.00;97508.88;4975160;28;20030;-49
2022/08/31 07:01:10;;;;;;;12.25;8.05;;;16.80;99.90;;;16.61;100.00;97507.66;4969165;28;20605;-49
2022/08/31 07:03:39;;;;;;;12.50;9.15;;;16.80;99.90;;;16.64;100.00;97511.94;4965787;28;20039;-49
2022/08/31 07:06:09;;;;;;;9.80;7.53;;;16.80;99.90;;;16.63;100.00;97504.06;4970991;28;20073;-50
2022/08/31 07:08:37;;;;;;;8.57;7.60;;;16.80;99.90;;;16.61;100.00;97514.78;4975356;28;20022;-50
2022/08/31 07:11:10;;;;;;;8.88;7.47;;;16.80;99.90;;;16.63;100.00;97506.72;4951217;28;20062;-49
2022/08/31 07:13:35;;;;;;;13.07;8.55;;;16.80;99.90;;;16.47;100.00;97478.34;4966334;28;20121;-50
2022/08/31 07:16:04;;;;;;;10.13;7.85;;;16.80;99.90;;;16.61;100.00;97497.00;4981093;28;20046;-49
2022/08/31 07:18:31;;;;;;;11.65;8.43;;;16.90;99.90;;;16.72;100.00;97508.81;4973814;28;23069;-49
2022/08/31 07:21:10;;;;;;;10.32;8.57;;;17.00;99.90;;;16.78;100.00;97524.44;4976082;28;20051;-48
2022/08/31 07:23:37;;;;;;;9.70;7.47;;;17.00;99.90;;;16.81;100.00;97518.91;4968755;28;20046;-48
2022/08/31 07:26:09;;;;;;;12.05;7.60;;;17.00;99.90;;;16.87;100.00;97525.72;4970762;28;20034;-51
2022/08/31 07:28:36;;;;;;;9.95;8.07;;;17.10;99.90;;;16.90;100.00;97530.84;4970988;28;20414;-50
2022/08/31 07:31:02;;;;;;;10.25;7.85;;;17.10;99.90;;;16.98;100.00;97529.44;4953461;28;20122;-50
2022/08/31 07:33:36;;;;;;;11.23;8.00;;;17.10;99.90;;;17.07;100.00;97533.38;4971605;28;20164;-50
2022/08/31 07:36:08;;;;;;;10.30;7.53;;;17.20;99.90;;;17.14;100.00;97523.19;4973145;28;20368;-50
2022/08/31 07:44:04;;;;;;;6.93;5.97;;;17.50;99.90;;;17.38;100.00;97533.28;4953356;28;20045;-50
2022/08/31 07:46:30;;;;;;;7.68;6.55;;;17.50;99.90;;;17.42;100.00;97529.47;4972093;28;20041;-50
2022/08/31 07:48:57;;;;;;;5.47;4.97;;;17.60;99.90;;;17.41;100.00;97527.72;4964731;28;20160;-50
2022/08/31 07:51:24;;;;;;;8.88;7.25;;;17.60;99.90;;;17.43;100.00;97531.19;4968883;28;20058;-50
2022/08/31 07:53:51;;;;;;;7.57;6.43;;;17.60;99.90;;;17.44;100.00;97536.41;4972588;28;20030;-49
2022/08/31 07:56:18;;;;;;;10.82;6.53;;;17.60;99.90;;;17.44;100.00;97536.41;4972796;28;20078;-49
2022/08/31 07:58:46;;;;;;;9.85;6.80;;;17.60;99.90;;;17.42;100.00;97540.13;4972734;28;20034;-48
2022/08/31 08:01:13;;;;;;;11.88;7.70;;;17.60;99.90;;;17.37;100.00;97543.06;4971824;28;20031;-48
2022/08/31 08:03:43;;;;;;;9.07;7.38;;;17.60;99.90;;;17.30;100.00;97542.59;4973779;28;20045;-48
2022/08/31 08:06:15;;;;;;;10.82;7.68;;;17.50;99.90;;;17.22;100.00;97536.03;4975928;28;20073;-50
2022/08/31 08:08:42;;;;;;;15.02;8.07;;;17.40;99.90;;;17.16;100.00;97539.94;4969530;28;20125;-46
2022/08/31 08:11:16;;;;;;;9.38;7.63;;;17.40;99.90;;;17.13;100.00;97534.78;4973764;28;20038;-49
2022/08/31 08:13:42;;;;;;;11.20;8.70;;;17.40;99.90;;;17.13;100.00;97532.13;4971512;28;20037;-48
2022/08/31 08:16:08;;;;;;;11.10;8.70;;;17.40;99.90;;;17.20;100.00;97536.13;4983411;23;20389;-42
2022/08/31 08:18:34;;;;;;;10.27;8.55;;;17.40;99.90;;;17.24;100.00;97534.97;5006015;28;20503;-42
2022/08/31 08:21:00;;;;;;;13.75;9.02;;;17.40;99.90;;;17.27;100.00;97548.13;4998528;28;20160;-42
2022/08/31 08:23:25;;;;;;;10.07;8.38;;;17.50;99.90;;;17.30;100.00;97545.28;5007462;28;20030;-43
2022/08/31 08:25:51;;;;;;;9.85;8.43;;;17.60;99.90;;;17.32;100.00;97542.53;5009764;28;20057;-41
2022/08/31 08:28:18;;;;;;;9.55;8.05;;;17.60;99.90;;;17.35;100.00;97552.97;5004028;28;20034;-42
2022/08/31 08:30:53;;;;;;;11.60;8.38;;;17.60;99.90;;;17.36;100.00;97554.69;5003585;28;20029;-41
2022/08/31 08:33:20;;;;;;;10.40;6.93;;;17.60;99.90;;;17.39;100.00;97556.31;4999671;28;20033;-44
2022/08/31 08:36:06;;;;;;;9.75;7.75;;;17.60;99.90;;;17.41;100.00;97552.59;5003031;28;20124;-43
2022/08/31 08:38:32;;;;;;;13.15;8.15;;;17.60;99.90;;;17.35;100.00;97551.19;4991163;28;20151;-42
2022/08/31 08:41:00;;;;;;;7.28;6.47;;;17.60;99.90;;;17.46;100.00;97560.31;5004342;28;20501;-43
2022/08/31 08:43:34;;;;;;;8.57;6.65;;;17.60;99.90;;;17.50;100.00;97559.19;5003741;28;20155;-42
2022/08/31 08:46:02;;;;;;;8.55;7.65;;;17.60;99.90;;;17.54;100.00;97558.03;4989801;28;20033;-44
2022/08/31 08:48:33;;;;;;;12.02;9.18;;;17.70;99.90;;;17.56;100.00;97561.44;4978726;28;20170;-42
2022/08/31 08:51:08;;;;;;;14.88;9.88;;;17.70;99.90;;;17.57;100.00;97568.50;4988244;28;20037;-41
2022/08/31 08:53:37;;;;;;;10.50;7.68;;;17.80;99.90;;;17.65;100.00;97571.53;4978810;28;20513;-41
2022/08/31 08:56:03;;;;;;;12.98;8.30;;;17.80;99.90;;;17.72;100.00;97578.19;4987120;28;20044;-43
2022/08/31 08:58:31;;;;;;;10.27;7.38;;;17.90;99.90;;;17.72;100.00;97572.84;4997211;28;20529;-44
2022/08/31 09:00:57;;;;;;;9.13;7.47;;;17.90;99.90;;;17.74;100.00;97568.28;4999737;28;20037;-43
2022/08/31 09:04:07;;;;;;;9.40;7.57;;;17.90;99.90;;;17.86;100.00;97582.69;4998059;28;20069;-43
2022/08/31 09:07:29;;;;;;;8.45;7.25;;;18.10;99.90;;;17.99;100.00;97576.56;4988284;28;20057;-42
2022/08/31 09:10:24;;;;;;;13.67;9.73;;;18.20;99.90;;;18.03;100.00;97588.75;5006086;28;20301;-41
2022/08/31 09:13:09;;;;;;;10.98;7.80;;;18.20;99.90;;;18.08;100.00;97584.00;4992339;28;20034;-42
2022/08/31 09:16:24;;;;;;;8.50;7.38;;;18.20;99.90;;;18.18;100.00;97585.13;5001804;28;20033;-42
2022/08/31 09:19:06;;;;;;;9.52;7.72;;;18.30;99.90;;;18.29;100.00;97593.28;4983653;28;20052;-42
2022/08/31 09:21:42;;;;;;;9.25;7.78;;;18.40;99.90;;;18.27;100.00;97595.19;4978177;28;20092;-41
2022/08/31 09:24:19;;;;;;;9.95;7.38;;;18.50;99.90;;;18.36;100.00;97588.41;4982410;28;20026;-42
2022/08/31 09:26:57;;;;;;;9.85;6.95;;;18.50;99.90;;;18.49;100.00;97596.47;4979026;28;20028;-42
2022/08/31 09:29:27;;;;;;;6.80;6.00;;;18.70;99.90;;;18.58;100.00;97595.84;5005205;28;20059;-42
2022/08/31 09:32:08;;;;;;;8.20;5.65;;;18.70;99.90;;;18.74;100.00;97593.00;4992546;28;20564;-42
2022/08/31 09:34:39;;;;;;;8.48;6.22;;;18.90;99.90;;;18.86;100.00;97578.88;4998903;28;20038;-43
2022/08/31 09:37:25;;;;;;;10.15;7.53;;;19.10;99.90;;;19.03;100.00;97591.06;5001756;28;20358;-40
2022/08/31 09:39:53;;;;;;;9.10;7.75;;;19.20;99.90;;;19.10;100.00;97596.00;4998650;28;20042;-40
2022/08/31 09:42:29;;;;;;;12.93;7.82;;;19.30;99.90;;;19.09;100.00;97600.47;4991332;28;20617;-41
2022/08/31 09:44:59;;;;;;;11.18;7.35;;;19.30;99.90;;;18.98;100.00;97597.69;4983164;28;20102;-41
2022/08/31 09:47:50;;;;;;;13.02;7.55;;;19.20;99.90;;;18.85;100.00;97603.84;4986644;28;20038;-41
2022/08/31 09:50:40;;;;;;;11.23;7.30;;;19.10;99.90;;;18.76;100.00;97601.78;4994621;28;20079;-41
2022/08/31 09:56:22;;;;;;;7.35;6.47;;;18.90;99.90;;;18.63;100.00;97598.22;4971529;28;20096;-42
2022/08/31 09:59:01;;;;;;;11.15;7.15;;;18.80;99.90;;;18.60;100.00;97599.25;5000550;28;20041;-40
2022/08/31 10:01:50;;;;;;;11.00;6.15;;;18.80;99.90;;;18.64;100.00;97599.91;5002263;28;20489;-41
2022/08/31 10:04:46;;;;;;;8.32;6.43;;;18.80;99.90;;;18.71;100.00;97598.53;5006360;28;20128;-41
2022/08/31 10:07:40;;;;;;;9.13;7.40;;;18.80;99.90;;;18.75;100.00;97594.69;5005542;28;20444;-41
2022/08/31 10:10:15;;;;;;;8.30;5.60;;;18.90;99.90;;;18.77;100.00;97591.94;5005535;28;20575;-42
2022/08/31 10:13:05;;;;;;;11.38;7.45;;;19.00;99.90;;;18.73;100.00;97596.63;5006136;28;20037;-41
2022/08/31 10:15:52;;;;;;;12.25;7.30;;;18.90;99.90;;;18.78;100.00;97605.19;4997341;28;20037;-41
2022/08/31 10:18:38;;;;;;;10.55;7.07;;;18.90;99.90;;;18.72;100.00;97600.28;4997027;28;20057;-41
2022/08/31 10:21:20;;;;;;;11.13;6.75;;;18.90;99.90;;;18.79;100.00;97600.69;5009898;28;20037;-40
2022/08/31 10:23:55;;;;;;;10.27;6.30;;;18.90;99.90;;;18.82;100.00;97605.88;4997342;28;20041;-41
2022/08/31 10:27:04;;;;;;;7.60;6.63;;;18.90;99.90;;;18.83;100.00;97607.59;4988688;28;20033;-41
2022/08/31 10:29:43;;;;;;;13.57;7.03;;;19.00;99.90;;;18.82;100.00;97592.50;5005606;28;20052;-40
2022/08/31 10:32:39;;;;;;;8.65;6.40;;;19.00;99.90;;;18.82;100.00;97606.72;4997319;28;20040;-42
2022/08/31 10:35:21;;;;;;;12.02;6.88;;;19.00;99.90;;;18.84;100.00;97602.16;5009535;28;20670;-43